Terminal Aerodrome Forecast
Issued by NWS

Home | Current Version | Previous Version | Graphics & Text | Print | Product List | Glossary On
Versions: 1 2 3 4 5 6 7 8 9 10 11 12 13 14 15
000
FTUS43 KGRB 171959 AAA
TAFAUW
TAF AMD
KAUW 171959Z 1720/1818 22011KT P6SM -SHRA SCT008 OVC015
      TEMPO 1720/1721 4SM SHRA BKN008
     FM172100 25013G21KT P6SM VCSH SCT008 OVC015
      TEMPO 1722/1802 BKN008
     FM180200 30010G17KT P6SM OVC008
     FM181300 30011G18KT P6SM BKN015
     FM181500 30011G18KT P6SM SCT025 BKN040=

USA.gov is the U.S. government's official web portal to all federal, state and local government web resources and services.